Time;durP1;ratioP1;P1;durP2;ratioP2;P2;SDS_P1;SDS_P2;PMS_P1;PMS_P2;Temp;Humidity;BMP_temperature;BMP_pressure;BME280_temperature;BME280_humidity;BME280_pressure;Samples;Min_cycle;Max_cycle;Signal;HPM_P1;HPM_P2
2021/08/05 05:03:24;;;;;;;;;;;;;;;25.64;59.90;99965.73;1854148;77;20139;-68
2021/08/05 05:05:52;;;;;;;;;;;;;;;25.82;58.68;99970.20;1824282;78;20072;-66
2021/08/05 05:08:21;;;;;;;;;;;;;;;25.90;59.37;99969.27;1820887;78;21209;-67
2021/08/05 05:10:50;;;;;;;;;;;;;;;25.99;58.66;99964.66;1828771;78;20450;-67
2021/08/05 05:13:17;;;;;;;;;;;;;;;26.06;58.23;99958.36;1827612;78;20435;-68
2021/08/05 05:15:45;;;;;;;;;;;;;;;26.30;57.92;99965.21;1827476;78;20124;-68
2021/08/05 05:18:14;;;;;;;;;;;;;;;26.57;57.46;99967.14;1829089;78;20111;-68
2021/08/05 05:20:44;;;;;;;;;;;;;;;26.83;56.90;99961.20;1824306;78;20115;-66
2021/08/05 05:23:11;;;;;;;;;;;;;;;27.00;55.86;99965.80;1802291;78;20086;-67
2021/08/05 05:25:39;;;;;;;;;;;;;;;27.11;55.17;99963.94;1792905;79;20083;-67
2021/08/05 05:28:07;;;;;;;;;;;;;;;27.17;55.37;99965.01;1792926;79;20074;-66
2021/08/05 05:30:39;;;;;;;;;;;;;;;27.22;54.89;99965.22;1757364;80;20109;-68
2021/08/05 05:33:07;;;;;;;;;;;;;;;27.26;54.73;99968.33;1816483;78;21101;-67
2021/08/05 05:35:39;;;;;;;;;;;;;;;27.40;54.48;99972.24;1796466;78;20107;-69
2021/08/05 05:38:06;;;;;;;;;;;;;;;27.55;53.92;99977.48;1790144;78;20129;-69
2021/08/05 05:40:35;;;;;;;;;;;;;;;27.72;53.95;99982.83;1810926;78;21306;-68
2021/08/05 05:43:04;;;;;;;;;;;;;;;27.93;53.56;99981.09;1814577;78;20149;-66
2021/08/05 05:45:32;;;;;;;;;;;;;;;28.20;52.60;99984.98;1817638;78;21963;-65
2021/08/05 05:48:00;;;;;;;;;;;;;;;28.52;52.05;99982.09;1802100;78;20632;-72
2021/08/05 05:50:28;;;;;;;;;;;;;;;28.85;51.24;99967.41;1791874;80;20089;-66
2021/08/05 05:52:57;;;;;;;;;;;;;;;29.11;50.61;99973.80;1808703;78;20113;-71
2021/08/05 05:55:24;;;;;;;;;;;;;;;29.25;49.81;99971.39;1828297;78;20098;-67
2021/08/05 05:57:50;;;;;;;;;;;;;;;29.30;49.53;99971.59;1828703;78;21092;-70
2021/08/05 06:00:18;;;;;;;;;;;;;;;29.30;49.40;99970.77;1829246;78;20109;-69
2021/08/05 06:02:56;;;;;;;;;;;;;;;29.28;48.66;99962.11;1824284;78;20368;-69
2021/08/05 06:05:23;;;;;;;;;;;;;;;29.23;49.04;99965.41;1822633;78;20078;-71
2021/08/05 06:07:52;;;;;;;;;;;;;;;29.16;49.33;99967.30;1794690;78;20098;-67
2021/08/05 06:10:21;;;;;;;;;;;;;;;29.06;49.02;99962.36;1826061;78;21091;-68
2021/08/05 06:12:51;;;;;;;;;;;;;;;28.88;49.71;99960.81;1825961;78;20070;-67
2021/08/05 06:15:19;;;;;;;;;;;;;;;28.75;50.16;99968.84;1814788;78;20102;-67
2021/08/05 06:17:49;;;;;;;;;;;;;;;28.76;50.30;99967.81;1790193;78;20071;-69
2021/08/05 06:20:19;;;;;;;;;;;;;;;28.90;50.13;99962.77;1794674;78;20379;-70
2021/08/05 06:22:51;;;;;;;;;;;;;;;29.10;49.81;99960.09;1794267;78;21110;-70
2021/08/05 06:25:19;;;;;;;;;;;;;;;29.44;49.41;99967.06;1795208;78;20121;-65
2021/08/05 06:27:52;;;;;;;;;;;;;;;29.78;48.99;99965.92;1825797;78;20113;-65
2021/08/05 06:30:19;;;;;;;;;;;;;;;30.10;48.53;99974.89;1826006;78;20105;-65
2021/08/05 06:32:49;;;;;;;;;;;;;;;30.25;47.33;99966.03;1826989;78;20108;-66
2021/08/05 06:35:19;;;;;;;;;;;;;;;30.25;47.35;99965.21;1822058;78;21084;-69
2021/08/05 06:37:46;;;;;;;;;;;;;;;30.27;47.21;99959.93;1815282;78;20089;-67
2021/08/05 06:40:12;;;;;;;;;;;;;;;30.41;46.88;99955.27;1815038;79;20428;-67
2021/08/05 06:42:40;;;;;;;;;;;;;;;30.48;46.84;99954.19;1806492;79;20184;-67
2021/08/05 06:45:12;;;;;;;;;;;;;;;30.44;46.37;99948.95;1822026;78;20143;-67
2021/08/05 06:47:45;;;;;;;;;;;;;;;30.27;46.47;99943.81;1828748;78;21798;-64
2021/08/05 06:50:12;;;;;;;;;;;;;;;29.98;47.00;99944.37;1822068;78;20245;-66
2021/08/05 06:52:38;;;;;;;;;;;;;;;29.72;47.69;99938.06;1797076;78;20116;-66
2021/08/05 06:55:06;;;;;;;;;;;;;;;29.58;48.08;99939.17;1823309;78;20074;-66
2021/08/05 06:57:32;;;;;;;;;;;;;;;29.57;48.17;99938.05;1816964;78;20095;-70
2021/08/05 06:59:59;;;;;;;;;;;;;;;29.52;48.46;99941.36;1828626;78;21027;-68
2021/08/05 07:02:26;;;;;;;;;;;;;;;29.51;48.92;99939.19;1808296;78;20118;-69
2021/08/05 07:04:53;;;;;;;;;;;;;;;29.57;48.70;99929.48;1797438;78;20109;-65
2021/08/05 07:07:20;;;;;;;;;;;;;;;29.62;48.14;99924.27;1817031;79;20093;-67
2021/08/05 07:09:47;;;;;;;;;;;;;;;29.57;48.60;99932.67;1817309;78;20404;-66
2021/08/05 07:12:14;;;;;;;;;;;;;;;29.50;48.73;99934.03;1805806;79;21205;-66
2021/08/05 07:14:41;;;;;;;;;;;;;;;29.47;48.10;99934.45;1778231;80;20095;-66
2021/08/05 07:17:10;;;;;;;;;;;;;;;29.47;48.00;99932.59;1801183;78;20141;-66
2021/08/05 07:19:38;;;;;;;;;;;;;;;29.56;48.12;99933.19;1806938;78;20109;-66
2021/08/05 07:22:04;;;;;;;;;;;;;;;29.75;47.84;99936.81;1807958;78;20066;-68
2021/08/05 07:24:31;;;;;;;;;;;;;;;30.04;47.88;99936.80;1819730;78;21120;-65
2021/08/05 07:26:58;;;;;;;;;;;;;;;30.33;46.55;99936.75;1816519;78;20145;-67
2021/08/05 07:29:25;;;;;;;;;;;;;;;30.57;45.58;99935.98;1820846;78;20150;-68
2021/08/05 07:31:52;;;;;;;;;;;;;;;30.68;45.30;99920.49;1819139;78;20359;-68
2021/08/05 07:34:19;;;;;;;;;;;;;;;30.79;45.18;99925.13;1817989;78;20151;-69
2021/08/05 07:36:48;;;;;;;;;;;;;;;30.90;44.36;99922.25;1817751;78;21043;-68
2021/08/05 07:39:16;;;;;;;;;;;;;;;31.01;43.45;99918.02;1818689;78;20416;-67
2021/08/05 07:41:46;;;;;;;;;;;;;;;31.00;43.47;99915.84;1814427;78;20078;-69
2021/08/05 07:44:15;;;;;;;;;;;;;;;30.97;43.84;99908.75;1814638;78;20086;-68
2021/08/05 07:46:43;;;;;;;;;;;;;;;30.99;43.95;99908.83;1800551;79;20090;-66
2021/08/05 07:49:13;;;;;;;;;;;;;;;31.08;43.50;99906.16;1782192;79;21467;-65
2021/08/05 07:51:44;;;;;;;;;;;;;;;31.04;44.28;99906.30;1811637;78;20114;-68
2021/08/05 07:56:53;;;;;;;;;;;;;;;31.30;43.72;99901.17;1771208;79;20159;-70
2021/08/05 07:59:23;;;;;;;;;;;;;;;31.39;43.67;99898.48;1799767;78;20125;-69
2021/08/05 08:01:54;;;;;;;;;;;;;;;31.52;43.69;99902.08;1773996;78;22103;-70
2021/08/05 08:04:22;;;;;;;;;;;;;;;31.74;42.73;99900.58;1805012;79;20403;-66
2021/08/05 08:06:52;;;;;;;;;;;;;;;31.82;42.49;99902.95;1798054;79;20095;-70
2021/08/05 08:09:21;;;;;;;;;;;;;;;31.81;41.97;99903.48;1788824;78;20122;-66
2021/08/05 08:11:50;;;;;;;;;;;;;;;31.61;42.46;99896.14;1797677;79;20109;-65
2021/08/05 08:14:18;;;;;;;;;;;;;;;31.48;42.68;99895.80;1800243;78;21193;-64
2021/08/05 08:16:47;;;;;;;;;;;;;;;31.49;43.03;99891.23;1802271;79;20078;-65
2021/08/05 08:19:15;;;;;;;;;;;;;;;31.60;43.32;99893.15;1807505;79;20149;-66
2021/08/05 08:21:41;;;;;;;;;;;;;;;31.66;42.71;99896.28;1787855;79;20124;-64
2021/08/05 08:24:10;;;;;;;;;;;;;;;31.44;44.02;99884.36;1816784;78;20172;-67
2021/08/05 08:26:38;;;;;;;;;;;;;;;31.48;43.99;99882.34;1784022;80;21186;-64
2021/08/05 08:29:05;;;;;;;;;;;;;;;31.55;43.67;99886.83;1791272;78;20141;-66
2021/08/05 08:31:34;;;;;;;;;;;;;;;31.68;43.37;99875.38;1803186;78;20117;-70
2021/08/05 08:34:02;;;;;;;;;;;;;;;31.89;42.96;99871.37;1806425;79;20148;-65
2021/08/05 08:36:33;;;;;;;;;;;;;;;32.06;42.64;99868.83;1805642;79;20083;-67
2021/08/05 08:39:02;;;;;;;;;;;;;;;32.12;42.11;99869.27;1808076;78;21778;-69
2021/08/05 08:41:33;;;;;;;;;;;;;;;32.07;41.63;99865.91;1812477;79;20197;-66
2021/08/05 08:44:02;;;;;;;;;;;;;;;31.95;41.97;99860.22;1818146;78;20180;-66
2021/08/05 08:46:34;;;;;;;;;;;;;;;31.90;42.23;99859.55;1816303;79;20145;-68
2021/08/05 08:49:03;;;;;;;;;;;;;;;31.91;42.79;99860.38;1816844;79;20086;-66
2021/08/05 08:51:33;;;;;;;;;;;;;;;32.02;42.48;99856.34;1820512;79;21065;-69
2021/08/05 08:54:07;;;;;;;;;;;;;;;32.10;40.98;99860.06;1811978;79;20118;-68
2021/08/05 08:56:37;;;;;;;;;;;;;;;31.95;40.56;99854.83;1808686;79;20141;-65
2021/08/05 08:59:06;;;;;;;;;;;;;;;31.62;40.83;99850.67;1819177;78;20443;-65
2021/08/05 09:01:42;;;;;;;;;;;;;;;31.35;42.09;99852.08;1816288;79;20145;-65
2021/08/05 09:04:12;;;;;;;;;;;;;;;31.33;42.69;99844.22;1822016;78;21199;-65
2021/08/05 09:06:48;;;;;;;;;;;;;;;31.41;42.37;99848.48;1827393;78;20144;-64
2021/08/05 09:09:13;;;;;;;;;;;;;;;31.49;41.58;99844.14;1825831;78;20085;-68
2021/08/05 09:11:41;;;;;;;;;;;;;;;31.54;40.81;99844.28;1821425;78;20629;-66
2021/08/05 09:14:10;;;;;;;;;;;;;;;31.54;39.91;99846.16;1826879;78;20101;-67
2021/08/05 09:16:39;;;;;;;;;;;;;;;31.51;40.63;99846.08;1828049;78;21132;-66
2021/08/05 09:19:20;;;;;;;;;;;;;;;31.49;40.77;99853.03;1707765;82;20091;-67
2021/08/05 09:21:54;;;;;;;;;;;;;;;31.45;40.81;99848.33;1772501;79;20116;-69
2021/08/05 09:24:28;;;;;;;;;;;;;;;31.40;40.99;99852.22;1772925;81;20405;-72
2021/08/05 09:26:59;;;;;;;;;;;;;;;31.30;40.70;99841.98;1772828;80;20092;-68
2021/08/05 09:29:26;;;;;;;;;;;;;;;31.03;41.05;99840.11;1773010;79;20530;-72
2021/08/05 09:32:00;;;;;;;;;;;;;;;30.66;42.07;99836.56;1766831;81;20119;-68
2021/08/05 09:34:36;;;;;;;;;;;;;;;30.36;42.98;99841.77;1770647;81;20131;-67
2021/08/05 09:37:04;;;;;;;;;;;;;;;30.23;43.54;99837.02;1776029;81;20087;-65
2021/08/05 09:39:32;;;;;;;;;;;;;;;30.19;43.87;99833.94;1776179;81;20100;-66
2021/08/05 09:42:06;;;;;;;;;;;;;;;30.13;44.26;99830.78;1765187;81;21042;-67
2021/08/05 09:44:45;;;;;;;;;;;;;;;30.08;44.20;99831.42;1766963;81;20390;-72
2021/08/05 09:47:21;;;;;;;;;;;;;;;30.02;44.27;99835.50;1772279;81;20460;-68
2021/08/05 09:49:52;;;;;;;;;;;;;;;29.95;44.15;99826.14;1772968;81;20094;-67
2021/08/05 09:52:32;;;;;;;;;;;;;;;29.91;44.46;99820.90;1772906;81;20440;-72
2021/08/05 09:55:01;;;;;;;;;;;;;;;29.98;44.60;99830.26;1772831;81;21109;-69
2021/08/05 09:57:41;;;;;;;;;;;;;;;30.02;44.12;99831.47;1772879;81;20082;-68
2021/08/05 10:00:10;;;;;;;;;;;;;;;30.03;44.30;99829.09;1764104;81;20364;-70
2021/08/05 10:02:47;;;;;;;;;;;;;;;30.14;44.70;99826.53;1766296;81;20106;-64
2021/08/05 10:05:20;;;;;;;;;;;;;;;30.21;44.31;99831.86;1758661;81;20112;-64
2021/08/05 10:07:49;;;;;;;;;;;;;;;30.23;44.12;99828.44;1748185;81;21142;-64
2021/08/05 10:10:18;;;;;;;;;;;;;;;30.21;44.19;99835.89;1762080;81;20126;-65
2021/08/05 10:12:53;;;;;;;;;;;;;;;30.15;44.16;99834.89;1762103;81;20074;-65
2021/08/05 10:15:20;;;;;;;;;;;;;;;30.07;44.31;99831.13;1762037;81;20121;-64
2021/08/05 10:17:52;;;;;;;;;;;;;;;30.03;44.93;99832.59;1761944;81;20408;-66
2021/08/05 10:20:22;;;;;;;;;;;;;;;30.10;45.24;99828.52;1762112;81;20198;-65
2021/08/05 10:22:56;;;;;;;;;;;;;;;30.18;44.89;99824.23;1730011;81;20118;-67
2021/08/05 10:25:25;;;;;;;;;;;;;;;30.25;44.79;99824.19;1762297;81;20356;-71
2021/08/05 10:27:59;;;;;;;;;;;;;;;30.33;44.59;99823.41;1762345;81;20106;-65
2021/08/05 10:30:26;;;;;;;;;;;;;;;30.43;44.53;99827.73;1762127;81;20094;-68
2021/08/05 10:32:55;;;;;;;;;;;;;;;30.50;43.69;99819.09;1762025;81;20137;-66
2021/08/05 10:35:24;;;;;;;;;;;;;;;30.53;43.98;99824.55;1728244;81;20138;-64
2021/08/05 10:37:52;;;;;;;;;;;;;;;30.58;44.02;99821.23;1761951;81;20117;-67
2021/08/05 10:40:20;;;;;;;;;;;;;;;30.66;43.19;99814.23;1762398;81;20090;-67
2021/08/05 10:42:52;;;;;;;;;;;;;;;30.73;42.41;99817.16;1761874;81;20082;-63
2021/08/05 10:45:21;;;;;;;;;;;;;;;30.73;42.91;99815.00;1762239;81;21099;-65
2021/08/05 10:47:50;;;;;;;;;;;;;;;30.73;42.55;99816.34;1761977;81;20094;-67
2021/08/05 10:50:19;;;;;;;;;;;;;;;30.76;42.07;99804.63;1762086;81;20115;-64
2021/08/05 10:52:49;;;;;;;;;;;;;;;30.77;42.10;99814.86;1762151;81;20220;-63
2021/08/05 10:55:22;;;;;;;;;;;;;;;30.73;41.36;99810.45;1761034;81;20083;-65
2021/08/05 10:58:11;;;;;;;;;;;;;;;30.67;41.82;99815.88;1762119;81;22348;-65
2021/08/05 11:00:54;;;;;;;;;;;;;;;30.65;42.46;99811.25;1762055;81;20209;-64
2021/08/05 11:03:45;;;;;;;;;;;;;;;30.68;41.66;99813.50;1750533;81;20082;-67
2021/08/05 11:06:06;;;;;;;;;;;;;;;30.66;42.06;99812.38;1747240;81;20081;-67
2021/08/05 11:08:36;;;;;;;;;;;;;;;30.61;41.40;99811.39;1751840;81;20090;-67
2021/08/05 11:11:25;;;;;;;;;;;;;;;30.53;41.34;99814.62;1755336;81;20994;-65
2021/08/05 11:14:05;;;;;;;;;;;;;;;30.48;40.82;99814.98;1755663;81;20098;-69
2021/08/05 11:17:00;;;;;;;;;;;;;;;30.46;40.90;99817.06;1758686;81;20446;-67
2021/08/05 11:19:28;;;;;;;;;;;;;;;30.42;40.56;99815.34;1758152;81;20098;-68
2021/08/05 11:21:56;;;;;;;;;;;;;;;30.43;39.66;99808.92;1761440;81;20110;-70
2021/08/05 11:24:49;;;;;;;;;;;;;;;30.48;39.56;99814.46;1761468;81;21501;-66
2021/08/05 11:27:17;;;;;;;;;;;;;;;30.54;39.76;99807.39;1762097;81;20149;-67
2021/08/05 11:29:45;;;;;;;;;;;;;;;30.61;39.35;99808.70;1761976;81;20120;-67
2021/08/05 11:32:21;;;;;;;;;;;;;;;30.59;39.59;99804.07;1761818;81;20084;-71
2021/08/05 11:35:05;;;;;;;;;;;;;;;30.55;39.68;99805.52;1757982;81;20355;-71
2021/08/05 11:37:32;;;;;;;;;;;;;;;30.55;39.38;99806.34;1756731;81;21211;-69
2021/08/05 11:40:06;;;;;;;;;;;;;;;30.60;39.04;99802.50;1752235;81;20107;-70
2021/08/05 11:42:35;;;;;;;;;;;;;;;30.62;38.98;99799.59;1758158;81;20132;-69
2021/08/05 11:45:08;;;;;;;;;;;;;;;30.59;39.15;99802.72;1753872;81;20122;-71
2021/08/05 11:47:42;;;;;;;;;;;;;;;30.50;39.42;99800.81;1731163;81;20189;-68
2021/08/05 11:50:18;;;;;;;;;;;;;;;30.40;39.79;99789.73;1752396;81;21105;-69
2021/08/05 11:52:47;;;;;;;;;;;;;;;30.35;39.91;99794.45;1751876;81;20086;-70
2021/08/05 11:55:18;;;;;;;;;;;;;;;30.29;40.07;99791.30;1758056;81;20153;-71
2021/08/05 11:57:50;;;;;;;;;;;;;;;30.27;40.07;99788.53;1753635;81;20356;-73
2021/08/05 12:00:40;;;;;;;;;;;;;;;30.26;40.02;99784.20;1761279;81;20098;-72
2021/08/05 12:03:08;;;;;;;;;;;;;;;30.27;39.72;99788.53;1761605;81;21154;-71
2021/08/05 12:05:40;;;;;;;;;;;;;;;30.23;40.05;99777.41;1761151;81;20090;-66
2021/08/05 12:08:10;;;;;;;;;;;;;;;30.19;40.44;99775.67;1759864;81;20392;-67
2021/08/05 12:10:41;;;;;;;;;;;;;;;30.15;40.47;99777.16;1767906;81;20118;-68
2021/08/05 12:13:21;;;;;;;;;;;;;;;30.13;40.72;99774.38;1736363;81;20149;-70
2021/08/05 12:15:53;;;;;;;;;;;;;;;30.08;41.03;99776.90;1759483;81;20645;-66
2021/08/05 12:18:20;;;;;;;;;;;;;;;30.04;41.59;99776.52;1757529;81;20535;-69
2021/08/05 12:20:49;;;;;;;;;;;;;;;29.99;41.65;99771.49;1750659;81;20205;-68
2021/08/05 12:26:05;;;;;;;;;;;;;;;29.89;41.76;99770.63;1754233;81;20094;-67
2021/08/05 12:28:39;;;;;;;;;;;;;;;29.88;41.90;99763.61;1748087;81;21143;-68
2021/08/05 12:31:09;;;;;;;;;;;;;;;29.86;42.13;99759.80;1748171;81;20118;-67
2021/08/05 12:33:41;;;;;;;;;;;;;;;29.88;42.30;99759.59;1748426;81;20185;-68
2021/08/05 12:36:15;;;;;;;;;;;;;;;29.92;42.42;99754.09;1749202;81;20417;-68
2021/08/05 12:38:48;;;;;;;;;;;;;;;29.96;42.27;99749.92;1762098;81;20416;-71
2021/08/05 12:41:24;;;;;;;;;;;;;;;30.02;42.42;99753.08;1761699;81;21956;-71
2021/08/05 12:43:53;;;;;;;;;;;;;;;30.03;42.34;99749.36;1759431;81;20157;-69
2021/08/05 12:46:22;;;;;;;;;;;;;;;30.02;42.24;99747.71;1761266;81;20137;-73
2021/08/05 12:48:54;;;;;;;;;;;;;;;30.00;42.51;99750.31;1757093;81;20122;-64
2021/08/05 12:51:21;;;;;;;;;;;;;;;29.96;42.35;99746.42;1758153;81;20401;-66
2021/08/05 12:53:48;;;;;;;;;;;;;;;29.95;42.54;99742.91;1754405;81;22297;-69
2021/08/05 12:56:15;;;;;;;;;;;;;;;29.97;42.48;99730.09;1746070;81;20385;-67
2021/08/05 12:58:41;;;;;;;;;;;;;;;30.00;42.54;99734.20;1760459;81;20082;-67
2021/08/05 13:01:21;;;;;;;;;;;;;;;29.99;42.55;99728.02;1748061;81;20445;-69
2021/08/05 13:03:49;;;;;;;;;;;;;;;29.97;43.06;99727.41;1752527;81;20102;-69
2021/08/05 13:06:18;;;;;;;;;;;;;;;29.96;42.91;99727.63;1754264;81;21147;-68
2021/08/05 13:08:46;;;;;;;;;;;;;;;29.95;43.21;99724.12;1747453;81;20265;-67
2021/08/05 13:11:33;;;;;;;;;;;;;;;30.00;43.27;99718.09;1758271;81;20094;-69
2021/08/05 13:14:01;;;;;;;;;;;;;;;30.02;43.20;99720.86;1752842;81;20141;-67
2021/08/05 13:16:30;;;;;;;;;;;;;;;30.03;42.72;99717.66;1759118;81;20142;-66
2021/08/05 13:19:11;;;;;;;;;;;;;;;29.97;43.05;99718.53;1753022;81;21741;-67
2021/08/05 13:21:41;;;;;;;;;;;;;;;29.84;43.31;99716.77;1745787;81;20095;-68
2021/08/05 13:24:15;;;;;;;;;;;;;;;29.69;43.62;99704.18;1732081;81;20424;-69
2021/08/05 13:26:46;;;;;;;;;;;;;;;29.56;43.69;99707.80;1752530;81;20141;-70
2021/08/05 13:29:38;;;;;;;;;;;;;;;29.41;44.04;99697.37;1755550;81;20137;-67
2021/08/05 13:32:07;;;;;;;;;;;;;;;29.31;44.28;99696.16;1746403;81;21140;-69
2021/08/05 13:34:34;;;;;;;;;;;;;;;29.16;45.01;99700.49;1756831;81;20342;-65
2021/08/05 13:37:01;;;;;;;;;;;;;;;29.08;45.10;99704.76;1762396;81;20431;-68
2021/08/05 13:39:48;;;;;;;;;;;;;;;28.98;45.45;99703.87;1761977;81;20098;-70
2021/08/05 13:42:16;;;;;;;;;;;;;;;28.91;45.97;99703.07;1760392;81;20624;-74
2021/08/05 13:44:43;;;;;;;;;;;;;;;28.86;46.12;99694.33;1761200;81;21122;-69
2021/08/05 13:47:09;;;;;;;;;;;;;;;28.84;46.23;99696.39;1761576;80;20097;-69
2021/08/05 13:49:37;;;;;;;;;;;;;;;28.82;46.35;99692.28;1761999;81;20084;-67
2021/08/05 13:52:05;;;;;;;;;;;;;;;28.82;46.28;99689.60;1762259;81;20081;-67
2021/08/05 13:54:32;;;;;;;;;;;;;;;28.81;45.92;99685.24;1762033;81;20102;-67
2021/08/05 13:56:59;;;;;;;;;;;;;;;28.79;46.19;99688.69;1757439;80;21146;-68
2021/08/05 13:59:27;;;;;;;;;;;;;;;28.78;46.13;99677.14;1786898;80;20402;-69
2021/08/05 14:01:54;;;;;;;;;;;;;;;28.76;46.17;99678.39;1768277;81;20086;-71
2021/08/05 14:04:21;;;;;;;;;;;;;;;28.72;45.87;99676.64;1785903;80;20096;-66
2021/08/05 14:06:50;;;;;;;;;;;;;;;28.71;45.82;99668.82;1750932;82;20104;-66
2021/08/05 14:09:17;;;;;;;;;;;;;;;28.72;45.65;99666.45;1751718;82;21120;-66
2021/08/05 14:11:44;;;;;;;;;;;;;;;28.75;46.12;99667.36;1751980;82;20452;-65
2021/08/05 14:14:13;;;;;;;;;;;;;;;28.78;45.54;99662.92;1751660;81;20187;-65
2021/08/05 14:16:44;;;;;;;;;;;;;;;28.76;44.70;99658.29;1751769;82;20148;-65
2021/08/05 14:19:09;;;;;;;;;;;;;;;28.69;45.08;99658.83;1752316;81;20081;-65
